Time;durP1;ratioP1;P1;durP2;ratioP2;P2;SDS_P1;SDS_P2;PMS_P1;PMS_P2;Temp;Humidity;BMP_temperature;BMP_pressure;BME280_temperature;BME280_humidity;BME280_pressure;Samples;Min_cycle;Max_cycle;Signal;HPM_P1;HPM_P2
2021/04/26 00:00:57;;;;;;;8.73;1.30;;;;;;;7.60;57.69;96739.94;4940043;28;20210;-71
2021/04/26 00:03:24;;;;;;;5.40;1.42;;;;;;;7.56;58.08;96740.97;4942168;28;20704;-71
2021/04/26 00:05:51;;;;;;;3.17;1.55;;;;;;;7.53;57.72;96738.53;4950090;28;20206;-71
2021/04/26 00:08:18;;;;;;;4.05;1.50;;;;;;;7.51;57.65;96733.44;4940094;28;20194;-70
2021/04/26 00:10:46;;;;;;;8.10;1.73;;;;;;;7.45;58.13;96727.72;4944082;28;20226;-72
2021/04/26 00:13:13;;;;;;;12.75;1.38;;;;;;;7.48;58.23;96723.22;4947306;28;20195;-72
2021/04/26 00:15:43;;;;;;;3.53;1.80;;;;;;;7.49;57.41;96724.06;4945573;28;20705;-72
2021/04/26 00:18:11;;;;;;;3.60;1.60;;;;;;;7.49;57.57;96713.69;4952412;28;20596;-71
2021/04/26 00:20:38;;;;;;;6.20;1.80;;;;;;;7.48;57.94;96709.44;4942496;28;20233;-72
2021/04/26 00:23:06;;;;;;;3.72;1.67;;;;;;;7.33;58.07;96710.16;4947472;28;20575;-72
2021/04/26 00:25:33;;;;;;;3.22;1.40;;;;;;;7.36;58.32;96702.28;4918721;28;20815;-72
2021/04/26 00:28:01;;;;;;;2.28;1.23;;;;;;;7.27;58.83;96700.09;4938687;28;20303;-72
2021/04/26 00:30:29;;;;;;;4.07;1.55;;;;;;;7.17;58.88;96704.03;4951099;28;20226;-71
2021/04/26 00:32:57;;;;;;;10.30;1.70;;;;;;;7.10;59.00;96687.13;4920576;28;20756;-71
2021/04/26 00:35:25;;;;;;;9.50;1.60;;;;;;;7.18;58.69;96696.22;4943754;28;20297;-72
2021/04/26 00:37:53;;;;;;;1.90;1.15;;;;;;;7.24;58.86;96695.06;4926369;28;20198;-71
2021/04/26 00:40:21;;;;;;;4.30;1.50;;;;;;;7.16;59.14;96695.44;4935757;28;20941;-73
2021/04/26 00:42:49;;;;;;;5.78;1.85;;;;;;;7.16;59.25;96689.44;4942800;28;20203;-73
2021/04/26 00:45:20;;;;;;;6.68;1.30;;;;;;;7.16;59.36;96676.47;4943329;28;20608;-70
2021/04/26 00:47:48;;;;;;;4.30;1.45;;;;;;;7.15;59.20;96675.63;4943380;28;20187;-70
2021/04/26 00:50:17;;;;;;;4.53;1.25;;;;;;;7.11;59.66;96662.91;4937148;28;20608;-71
2021/04/26 00:52:45;;;;;;;3.75;1.40;;;;;;;6.97;59.54;96661.00;4945384;28;20665;-72
2021/04/26 00:55:14;;;;;;;4.63;1.73;;;;;;;6.90;59.48;96658.75;4944678;28;20540;-71
2021/04/26 00:57:42;;;;;;;3.78;1.45;;;;;;;6.81;59.91;96635.91;4945418;28;20282;-71
2021/04/26 01:00:11;;;;;;;3.72;1.45;;;;;;;6.84;60.59;96640.94;4944951;28;20647;-70
2021/04/26 01:02:38;;;;;;;6.07;1.77;;;;;;;6.73;60.53;96632.81;4943328;28;20655;-71
2021/04/26 01:05:09;;;;;;;3.85;1.40;;;;;;;6.78;60.39;96633.47;4937352;28;20352;-71
2021/04/26 01:07:37;;;;;;;7.35;1.50;;;;;;;6.70;60.67;96625.22;4940486;28;20265;-70
2021/04/26 01:10:07;;;;;;;9.25;2.70;;;;;;;6.72;60.64;96639.78;4947265;28;20302;-71
2021/04/26 01:12:44;;;;;;;4.50;2.00;;;;;;;6.64;61.09;96643.59;4941505;28;20191;-71
2021/04/26 01:15:19;;;;;;;9.60;1.63;;;;;;;6.60;60.89;96644.63;4945351;28;20697;-71
2021/04/26 01:17:49;;;;;;;17.95;1.95;;;;;;;6.55;61.06;96637.09;4935070;28;20182;-71
2021/04/26 01:20:51;;;;;;;3.88;1.67;;;;;;;6.55;61.32;96633.69;4942860;28;20222;-70
2021/04/26 01:23:55;;;;;;;6.60;1.80;;;;;;;6.57;61.65;96634.44;4942900;28;20729;-71
2021/04/26 01:26:31;;;;;;;9.35;1.90;;;;;;;6.62;61.82;96633.31;4947701;28;20819;-70
2021/04/26 01:29:11;;;;;;;3.95;1.27;;;;;;;6.58;61.75;96625.78;4942723;28;20241;-72
2021/04/26 01:31:45;;;;;;;4.90;1.85;;;;;;;6.55;61.91;96631.94;4942889;28;20524;-73
2021/04/26 01:34:14;;;;;;;3.75;1.52;;;;;;;6.42;62.08;96615.28;4942586;28;20218;-71
2021/04/26 01:36:41;;;;;;;9.40;1.67;;;;;;;6.54;62.05;96634.56;4950024;28;20246;-72
2021/04/26 01:39:09;;;;;;;2.67;1.23;;;;;;;6.53;62.17;96643.25;4937084;28;20218;-72
2021/04/26 01:41:37;;;;;;;7.63;1.90;;;;;;;6.48;61.79;96629.72;4943212;28;20203;-70
2021/04/26 01:44:06;;;;;;;3.63;1.70;;;;;;;6.50;62.01;96635.63;4948581;28;20218;-70
2021/04/26 01:46:33;;;;;;;6.75;2.20;;;;;;;6.50;62.69;96638.22;4949164;28;20171;-73
2021/04/26 01:49:02;;;;;;;6.20;1.95;;;;;;;6.43;62.31;96621.31;4941636;28;20275;-70
2021/04/26 01:51:31;;;;;;;6.70;1.90;;;;;;;6.49;62.73;96636.56;4943524;28;20565;-72
2021/04/26 01:54:02;;;;;;;9.10;2.42;;;;;;;6.42;62.57;96633.38;4935159;28;20218;-71
2021/04/26 01:56:33;;;;;;;6.82;1.90;;;;;;;6.32;62.61;96626.97;4947114;28;20580;-70
2021/04/26 01:59:01;;;;;;;14.35;2.17;;;;;;;6.21;62.81;96615.44;4940101;28;20219;-72
2021/04/26 02:01:28;;;;;;;5.88;2.03;;;;;;;6.38;63.29;96631.00;4941681;28;20697;-70
2021/04/26 02:03:59;;;;;;;6.43;2.33;;;;;;;6.38;63.06;96628.44;4937786;28;20402;-71
2021/04/26 02:06:27;;;;;;;7.88;1.83;;;;;;;6.42;62.89;96635.16;4946124;28;20209;-72
2021/04/26 02:08:56;;;;;;;11.55;1.95;;;;;;;6.42;63.16;96642.91;4937538;28;20241;-72
2021/04/26 02:11:24;;;;;;;4.70;2.28;;;;;;;6.33;63.85;96631.22;4941797;28;20557;-71
2021/04/26 02:13:52;;;;;;;7.97;2.53;;;;;;;6.40;63.49;96642.16;4942140;28;20650;-70
2021/04/26 02:16:20;;;;;;;4.78;3.28;;;;;;;6.32;64.03;96642.47;4941791;28;20186;-71
2021/04/26 02:18:48;;;;;;;9.73;2.55;;;;;;;6.27;64.40;96641.00;4942277;28;20211;-71
2021/04/26 02:21:15;;;;;;;6.80;2.03;;;;;;;6.19;64.29;96648.25;4944775;28;20261;-71
2021/04/26 02:23:42;;;;;;;10.32;2.30;;;;;;;6.25;64.36;96648.00;4944397;28;20674;-70
2021/04/26 02:26:10;;;;;;;3.80;2.08;;;;;;;6.28;63.89;96647.84;4941464;28;20533;-70
2021/04/26 02:28:37;;;;;;;9.52;2.70;;;;;;;6.24;64.31;96635.94;4941131;28;20603;-71
2021/04/26 02:31:06;;;;;;;10.68;2.85;;;;;;;6.27;63.93;96641.00;4940039;28;20210;-71
2021/04/26 02:33:38;;;;;;;6.78;2.30;;;;;;;6.21;64.85;96633.53;4942380;28;20229;-70
2021/04/26 02:36:09;;;;;;;5.25;2.55;;;;;;;6.22;64.13;96633.47;4942577;28;20199;-72
2021/04/26 02:38:39;;;;;;;5.40;2.55;;;;;;;6.15;64.79;96623.44;4935218;28;20622;-72
2021/04/26 02:41:10;;;;;;;7.43;3.28;;;;;;;6.12;65.30;96637.34;4937680;28;20205;-72
2021/04/26 02:43:42;;;;;;;8.38;2.58;;;;;;;6.11;65.19;96630.50;4939124;28;20627;-71
2021/04/26 02:46:09;;;;;;;5.18;2.65;;;;;;;6.07;65.26;96616.06;4939748;28;20646;-73
2021/04/26 02:48:38;;;;;;;8.43;2.47;;;;;;;6.00;65.64;96619.81;4940157;28;20227;-75
2021/04/26 02:51:06;;;;;;;6.30;2.28;;;;;;;5.95;65.93;96607.97;4938801;28;20183;-71
2021/04/26 02:53:34;;;;;;;6.07;2.78;;;;;;;5.93;66.19;96609.81;4945990;28;20242;-71
2021/04/26 02:56:05;;;;;;;10.57;2.60;;;;;;;5.90;65.82;96603.03;4941972;28;20278;-71
2021/04/26 02:58:34;;;;;;;5.88;2.97;;;;;;;5.87;66.32;96599.72;4936892;28;20675;-71
2021/04/26 03:01:05;;;;;;;7.93;2.92;;;;;;;5.88;65.80;96601.41;4944438;28;20792;-71
2021/04/26 03:03:35;;;;;;;6.47;3.33;;;;;;;5.86;66.44;96608.38;4939550;28;20683;-71
2021/04/26 03:06:02;;;;;;;6.63;3.70;;;;;;;5.80;66.27;96611.22;4936627;28;20616;-69
2021/04/26 03:08:31;;;;;;;7.53;3.15;;;;;;;5.77;66.97;96611.34;4937394;28;20223;-70
2021/04/26 03:10:58;;;;;;;10.05;3.22;;;;;;;5.73;66.56;96602.88;4937471;28;20203;-71
2021/04/26 03:13:28;;;;;;;8.25;2.75;;;;;;;5.72;67.48;96597.78;4932910;28;20191;-72
2021/04/26 03:15:55;;;;;;;5.50;2.10;;;;;;;5.70;67.09;96579.78;4936531;28;20850;-69
2021/04/26 03:18:24;;;;;;;12.93;3.70;;;;;;;5.70;67.12;96591.84;4936313;28;20548;-73
2021/04/26 03:20:52;;;;;;;10.55;3.60;;;;;;;5.63;67.44;96583.53;4941532;28;20195;-71
2021/04/26 03:23:23;;;;;;;11.27;2.90;;;;;;;5.65;68.03;96583.47;4945686;28;20931;-70
2021/04/26 03:25:50;;;;;;;9.02;2.58;;;;;;;5.56;68.02;96584.72;4933694;28;20693;-70
2021/04/26 03:28:18;;;;;;;7.47;2.63;;;;;;;5.63;67.38;96580.13;4936991;28;20242;-70
2021/04/26 03:30:46;;;;;;;8.35;2.72;;;;;;;5.54;67.72;96572.78;4946477;28;20422;-73
2021/04/26 03:33:15;;;;;;;6.95;3.45;;;;;;;5.53;68.01;96582.25;4944074;28;20521;-69
2021/04/26 03:35:45;;;;;;;4.80;2.50;;;;;;;5.51;68.34;96581.47;4939464;28;20222;-70
2021/04/26 03:38:12;;;;;;;8.63;3.30;;;;;;;5.49;68.45;96578.13;4939069;28;20427;-71
2021/04/26 03:40:40;;;;;;;8.23;3.13;;;;;;;5.51;68.38;96576.31;4949440;28;20682;-70
2021/04/26 03:43:08;;;;;;;14.63;3.17;;;;;;;5.54;68.15;96580.50;4939516;28;20206;-71
2021/04/26 03:45:36;;;;;;;7.57;2.80;;;;;;;5.56;67.96;96574.38;4929807;28;20222;-71
2021/04/26 03:48:03;;;;;;;12.80;3.03;;;;;;;5.60;68.00;96572.50;4945208;28;20520;-71
2021/04/26 03:50:30;;;;;;;7.07;3.53;;;;;;;5.55;68.02;96577.03;4948194;28;20798;-71
2021/04/26 03:52:58;;;;;;;6.95;3.25;;;;;;;5.56;67.75;96578.69;4945958;28;20246;-73
2021/04/26 03:55:25;;;;;;;6.78;3.25;;;;;;;5.55;68.18;96577.88;4943302;28;20231;-72
2021/04/26 03:57:52;;;;;;;5.05;3.28;;;;;;;5.57;68.03;96580.38;4952337;28;20243;-72
2021/04/26 04:00:21;;;;;;;4.65;2.50;;;;;;;5.53;67.90;96578.84;4947134;28;20684;-73
2021/04/26 04:02:48;;;;;;;30.77;4.13;;;;;;;5.35;67.54;96587.34;4937767;28;20258;-71
2021/04/26 04:05:16;;;;;;;14.93;3.30;;;;;;;5.20;68.26;96585.41;4937803;28;20708;-70
2021/04/26 04:07:43;;;;;;;5.10;3.22;;;;;;;5.15;68.67;96577.00;4921571;28;20597;-71
2021/04/26 04:10:13;;;;;;;7.95;3.28;;;;;;;5.12;69.55;96570.25;4944781;28;20848;-70
2021/04/26 04:12:41;;;;;;;6.57;3.20;;;;;;;5.24;68.81;96581.81;4945476;28;20634;-70
2021/04/26 04:15:10;;;;;;;9.75;3.65;;;;;;;5.04;68.65;96567.16;4946266;28;20694;-71
2021/04/26 04:17:39;;;;;;;7.88;3.50;;;;;;;5.03;69.05;96575.75;4951929;28;20192;-70
2021/04/26 04:20:09;;;;;;;6.00;3.50;;;;;;;5.01;69.69;96572.41;4943220;28;20756;-70
2021/04/26 04:22:36;;;;;;;6.32;3.40;;;;;;;4.97;69.62;96577.75;4939902;28;20569;-70
2021/04/26 04:25:05;;;;;;;14.55;4.22;;;;;;;5.02;69.86;96571.50;4942031;28;20705;-71
2021/04/26 04:27:34;;;;;;;15.48;4.63;;;;;;;5.06;69.90;96577.38;4926327;28;20646;-72
2021/04/26 04:30:05;;;;;;;11.73;4.07;;;;;;;5.13;69.58;96568.50;4940346;28;20222;-72
2021/04/26 04:32:32;;;;;;;9.45;3.20;;;;;;;5.14;69.13;96570.16;4938519;28;20265;-71
2021/04/26 04:34:59;;;;;;;7.85;3.58;;;;;;;5.19;69.40;96573.41;4935673;28;20257;-70
2021/04/26 04:37:28;;;;;;;9.90;3.53;;;;;;;5.22;69.33;96562.94;4939681;28;20479;-70
2021/04/26 04:39:55;;;;;;;21.65;3.65;;;;;;;5.23;69.44;96564.66;4945548;28;20233;-70
2021/04/26 04:42:22;;;;;;;10.27;3.15;;;;;;;5.23;69.35;96568.06;4939406;28;20198;-71
2021/04/26 04:44:50;;;;;;;7.60;3.20;;;;;;;5.23;68.94;96564.66;4942667;28;20566;-69
2021/04/26 04:47:17;;;;;;;4.93;3.50;;;;;;;5.25;68.83;96561.06;4949232;28;20207;-70
2021/04/26 04:49:44;;;;;;;6.85;4.20;;;;;;;5.27;68.91;96571.34;4947154;28;20218;-71
2021/04/26 04:52:13;;;;;;;9.38;3.35;;;;;;;5.31;68.98;96567.75;4946150;28;20701;-70
2021/04/26 04:54:40;;;;;;;16.50;5.13;;;;;;;5.31;68.75;96562.59;4943054;28;20302;-69
2021/04/26 04:57:08;;;;;;;15.13;4.03;;;;;;;4.90;69.01;96571.16;4936690;28;20510;-73
2021/04/26 04:59:35;;;;;;;14.77;5.03;;;;;;;4.61;69.26;96574.06;4939280;28;20222;-71
2021/04/26 05:02:03;;;;;;;13.95;5.13;;;;;;;4.65;69.35;96573.06;4922593;28;20551;-71
2021/04/26 05:04:30;;;;;;;18.52;4.55;;;;;;;4.69;69.74;96579.75;4944205;28;20637;-71
2021/04/26 05:06:57;;;;;;;10.20;3.75;;;;;;;4.57;69.96;96572.53;4947539;28;20187;-71
2021/04/26 05:09:24;;;;;;;11.10;4.53;;;;;;;4.76;70.34;96578.63;4941011;28;20248;-72
2021/04/26 05:11:51;;;;;;;26.92;5.13;;;;;;;4.88;70.52;96578.13;4941614;28;20202;-72
2021/04/26 05:14:18;;;;;;;9.52;3.58;;;;;;;5.01;70.04;96564.69;4943107;28;20242;-72
2021/04/26 05:16:45;;;;;;;9.13;3.53;;;;;;;5.29;69.52;96570.38;4932703;28;20637;-71
2021/04/26 05:19:13;;;;;;;12.82;3.75;;;;;;;5.46;68.85;96577.41;4920487;28;20803;-70
2021/04/26 05:21:44;;;;;;;50.65;22.67;;;;;;;5.61;68.61;96576.75;4939267;28;20726;-72
2021/04/26 05:24:11;;;;;;;10.00;5.07;;;;;;;5.37;68.33;96585.53;4937632;28;20559;-70
2021/04/26 05:26:38;;;;;;;5.70;3.55;;;;;;;5.01;69.32;96579.34;4924223;28;20739;-71
2021/04/26 05:29:05;;;;;;;14.02;4.32;;;;;;;5.12;69.07;96587.44;4948294;28;20268;-73
2021/04/26 05:31:32;;;;;;;10.65;3.92;;;;;;;5.30;69.02;96589.28;4943967;28;20194;-71
2021/04/26 05:33:59;;;;;;;8.27;3.78;;;;;;;5.45;68.31;96591.22;4941415;28;20222;-71
2021/04/26 05:36:27;;;;;;;12.00;4.13;;;;;;;5.78;67.73;96582.88;4931934;28;20273;-73
2021/04/26 05:38:54;;;;;;;13.48;3.95;;;;;;;6.07;66.66;96579.03;4947036;28;20529;-71
2021/04/26 05:41:21;;;;;;;5.90;3.20;;;;;;;6.31;65.36;96580.50;4939466;28;20202;-72
2021/04/26 05:43:48;;;;;;;7.13;3.50;;;;;;;6.57;64.93;96582.75;4947433;28;20223;-71
2021/04/26 05:46:16;;;;;;;7.53;2.92;;;;;;;6.68;64.73;96586.50;4950718;28;20187;-72
2021/04/26 05:48:45;;;;;;;31.17;4.85;;;;;;;6.85;64.26;96585.72;4946587;28;20245;-72
2021/04/26 05:51:11;;;;;;;10.40;3.90;;;;;;;7.06;63.82;96589.84;4926079;28;20203;-71
2021/04/26 05:53:39;;;;;;;10.85;3.30;;;;;;;7.19;62.59;96588.31;4943464;28;20218;-72
2021/04/26 05:56:06;;;;;;;10.05;3.63;;;;;;;7.42;61.91;96588.88;4940018;28;20595;-71
2021/04/26 05:58:36;;;;;;;15.07;5.07;;;;;;;7.58;61.16;96583.78;4937877;28;20218;-72
2021/04/26 06:01:03;;;;;;;16.52;4.10;;;;;;;7.58;60.70;96576.00;4939098;28;20190;-74
2021/04/26 06:03:30;;;;;;;15.95;8.90;;;;;;;7.73;60.26;96575.22;4941435;28;20257;-73
2021/04/26 06:05:57;;;;;;;31.70;15.30;;;;;;;7.93;59.80;96578.47;4950914;28;20502;-72
2021/04/26 06:08:25;;;;;;;10.95;4.43;;;;;;;8.11;59.59;96574.94;4941301;28;20568;-74
2021/04/26 06:10:53;;;;;;;9.43;3.40;;;;;;;8.18;58.82;96562.47;4942096;28;20798;-73
2021/04/26 06:13:19;;;;;;;11.77;3.70;;;;;;;8.32;59.03;96577.25;4940674;28;20261;-71
2021/04/26 06:15:46;;;;;;;12.93;3.97;;;;;;;8.37;58.17;96589.94;4941731;28;20868;-73
2021/04/26 06:18:15;;;;;;;4.72;3.05;;;;;;;8.39;58.48;96583.78;4944399;28;20627;-71
2021/04/26 06:20:45;;;;;;;10.38;3.03;;;;;;;8.57;57.71;96580.16;4943856;28;20187;-72
2021/04/26 06:23:12;;;;;;;14.30;4.17;;;;;;;8.77;57.17;96584.28;4931797;28;20806;-71
2021/04/26 06:25:42;;;;;;;4.90;2.73;;;;;;;8.90;56.58;96596.50;4942811;28;20441;-72
2021/04/26 06:28:10;;;;;;;20.00;3.90;;;;;;;9.05;57.33;96590.44;4937319;28;20525;-72
2021/04/26 06:30:39;;;;;;;8.23;3.47;;;;;;;9.21;56.63;96590.44;4945030;28;20193;-72
2021/04/26 06:33:14;;;;;;;7.40;3.80;;;;;;;9.32;55.52;96583.72;4948473;28;20965;-71
2021/04/26 06:35:48;;;;;;;14.40;4.40;;;;;;;9.41;55.47;96587.53;4938450;28;20925;-72
2021/04/26 06:38:16;;;;;;;13.67;3.77;;;;;;;9.62;55.58;96575.88;4946707;28;20465;-71
2021/04/26 06:40:45;;;;;;;5.63;3.70;;;;;;;9.77;54.63;96582.78;4947695;28;20448;-71
2021/04/26 06:43:14;;;;;;;7.23;3.53;;;;;;;10.05;54.53;96578.50;4943982;28;20481;-70
2021/04/26 06:45:43;;;;;;;14.40;4.13;;;;;;;10.06;54.60;96577.56;4939505;28;20833;-72
2021/04/26 06:48:14;;;;;;;8.80;4.40;;;;;;;10.04;53.64;96579.41;4943326;28;20442;-71
2021/04/26 06:50:41;;;;;;;16.03;4.03;;;;;;;10.21;53.25;96576.63;4946396;28;20492;-72
2021/04/26 06:53:09;;;;;;;10.37;3.73;;;;;;;10.27;51.62;96571.06;4943450;28;20787;-71
2021/04/26 06:55:35;;;;;;;25.63;4.03;;;;;;;9.84;52.35;96568.50;4946250;28;20454;-73
2021/04/26 06:58:03;;;;;;;11.83;3.70;;;;;;;9.86;53.86;96559.69;4937204;28;20438;-70
2021/04/26 07:00:31;;;;;;;16.53;3.87;;;;;;;9.41;52.77;96583.16;4945656;28;20470;-70
2021/04/26 07:02:58;;;;;;;25.53;5.00;;;;;;;9.08;54.18;96585.06;4945577;28;20521;-72
2021/04/26 07:05:25;;;;;;;19.50;5.20;;;;;;;8.94;54.59;96579.81;4942548;28;20945;-71
2021/04/26 07:07:52;;;;;;;14.03;4.83;;;;;;;9.21;54.95;96580.88;4946678;28;21069;-71
2021/04/26 07:10:19;;;;;;;8.33;4.07;;;;;;;9.28;55.14;96576.19;4924549;28;21026;-72
2021/04/26 07:12:46;;;;;;;14.73;3.90;;;;;;;9.59;53.63;96586.47;4949354;28;20447;-71
2021/04/26 07:15:15;;;;;;;20.73;4.13;;;;;;;9.81;53.55;96579.09;4945607;28;21030;-72
2021/04/26 07:17:43;;;;;;;28.10;5.03;;;;;;;10.24;53.26;96579.03;4951914;28;20453;-70
2021/04/26 07:20:14;;;;;;;16.33;4.27;;;;;;;11.03;52.36;96567.94;4950132;28;20553;-73
2021/04/26 07:22:41;;;;;;;28.27;5.10;;;;;;;11.25;50.30;96562.16;4945197;28;20453;-71
2021/04/26 07:25:09;;;;;;;28.97;5.00;;;;;;;10.88;50.78;96555.88;4951850;28;20461;-71
2021/04/26 07:27:36;;;;;;;32.67;5.10;;;;;;;10.80;51.83;96555.53;4945076;28;21278;-72
2021/04/26 07:30:05;;;;;;;15.93;5.00;;;;;;;11.42;50.33;96549.69;4946410;28;20474;-72
2021/04/26 07:32:33;;;;;;;14.30;4.20;;;;;;;11.98;49.60;96553.75;4956898;28;20442;-73
2021/04/26 07:35:02;;;;;;;49.27;6.40;;;;;;;12.73;48.31;96554.47;4944385;28;20580;-71
2021/04/26 07:37:29;;;;;;;27.83;4.20;;;;;;;12.93;46.60;96559.13;4949129;28;20457;-71
2021/04/26 07:39:55;;;;;;;13.57;4.50;;;;;;;12.36;47.14;96555.41;4947215;28;20467;-70
2021/04/26 07:42:22;;;;;;;28.97;11.60;;;;;;;11.63;50.39;96552.69;4952466;28;20985;-70
2021/04/26 07:44:49;;;;;;;12.83;5.00;;;;;;;12.31;49.93;96554.91;4949401;28;20860;-71
2021/04/26 07:47:17;;;;;;;30.13;5.20;;;;;;;12.41;48.96;96552.47;4931467;28;20446;-72
2021/04/26 07:49:45;;;;;;;14.60;4.80;;;;;;;11.89;48.55;96542.19;4946228;28;21335;-71
2021/04/26 07:52:33;;;;;;;7.20;3.40;;;;;;;11.48;50.26;96544.09;4952152;28;20478;-70
2021/04/26 07:55:02;;;;;;;17.40;4.20;;;;;;;11.88;50.32;96532.69;4942814;28;21073;-71
2021/04/26 07:57:31;;;;;;;10.67;4.00;;;;;;;11.87;49.85;96535.41;4943316;28;20532;-72
2021/04/26 07:59:58;;;;;;;21.40;5.33;;;;;;;12.18;48.87;96541.03;4949817;28;21001;-72
2021/04/26 08:02:25;;;;;;;11.23;4.00;;;;;;;11.89;49.28;96529.16;4951263;28;20466;-70
2021/04/26 08:04:52;;;;;;;34.57;4.30;;;;;;;11.74;49.20;96527.56;4944745;28;20946;-73
2021/04/26 08:07:19;;;;;;;19.53;4.80;;;;;;;11.82;49.60;96533.09;4939897;28;20450;-70
2021/04/26 08:09:47;;;;;;;15.40;5.50;;;;;;;11.73;48.79;96532.88;4921597;28;20946;-71
2021/04/26 08:12:14;;;;;;;32.47;4.53;;;;;;;11.40;50.12;96530.72;4928109;28;20447;-72
2021/04/26 08:14:42;;;;;;;19.33;4.57;;;;;;;11.81;50.73;96535.81;4944086;28;20454;-72
2021/04/26 08:17:10;;;;;;;9.80;4.10;;;;;;;11.74;50.14;96524.97;4946746;28;20427;-72
2021/04/26 08:19:37;;;;;;;39.83;6.60;;;;;;;11.62;49.81;96519.75;4952622;28;20870;-70
2021/04/26 08:22:05;;;;;;;14.70;4.37;;;;;;;11.86;51.06;96526.72;4937830;28;20489;-72
2021/04/26 08:24:32;;;;;;;8.30;3.60;;;;;;;12.76;49.66;96523.75;4943856;28;20491;-71
2021/04/26 08:26:59;;;;;;;10.63;4.50;;;;;;;13.08;48.03;96524.06;4951102;28;20446;-74
2021/04/26 08:29:26;;;;;;;9.27;4.10;;;;;;;13.05;48.53;96519.09;4940695;28;20466;-71
2021/04/26 08:31:53;;;;;;;11.17;4.50;;;;;;;13.46;47.48;96514.25;4946127;28;20442;-73
2021/04/26 08:34:21;;;;;;;75.37;7.70;;;;;;;13.36;47.34;96518.50;4942839;28;20969;-71
2021/04/26 08:36:48;;;;;;;14.63;4.47;;;;;;;13.45;48.33;96517.81;4943313;28;20499;-71
2021/04/26 08:39:16;;;;;;;21.53;3.30;;;;;;;13.67;47.07;96503.03;4944637;28;20953;-71
2021/04/26 08:41:46;;;;;;;13.43;4.60;;;;;;;13.80;47.61;96514.19;4939440;28;20504;-72
2021/04/26 08:44:14;;;;;;;19.73;4.60;;;;;;;13.42;46.70;96505.78;4936568;28;20992;-72
2021/04/26 08:46:43;;;;;;;12.57;4.53;;;;;;;14.02;48.08;96513.41;4937118;28;20932;-71
2021/04/26 08:49:11;;;;;;;11.57;4.40;;;;;;;14.70;47.22;96514.13;4943654;28;21004;-72
2021/04/26 08:51:38;;;;;;;24.63;4.13;;;;;;;14.71;46.37;96510.53;4942842;28;20455;-72
2021/04/26 08:54:07;;;;;;;58.83;29.70;;;;;;;15.18;46.17;96507.56;4945515;28;20470;-71
2021/04/26 08:56:34;;;;;;;21.33;7.90;;;;;;;15.35;45.38;96504.41;4931974;28;20857;-72
2021/04/26 08:59:02;;;;;;;29.17;5.73;;;;;;;15.75;45.32;96508.84;4945215;28;20470;-73
2021/04/26 09:01:30;;;;;;;20.60;7.80;;;;;;;16.00;44.59;96515.50;4951053;28;20472;-73
2021/04/26 09:04:04;;;;;;;45.77;10.60;;;;;;;16.25;44.69;96513.28;4941049;28;20488;-71
2021/04/26 09:06:50;;;;;;;184.10;16.00;;;;;;;16.57;44.17;96513.19;4951567;28;21096;-71
2021/04/26 09:09:33;;;;;;;120.83;14.13;;;;;;;16.49;43.70;96515.66;4946887;28;20459;-72
2021/04/26 09:12:00;;;;;;;15.20;4.77;;;;;;;16.86;42.76;96508.84;4941029;28;20449;-72
2021/04/26 09:14:35;;;;;;;7.20;4.10;;;;;;;16.96;42.86;96518.41;4942604;28;20468;-73
2021/04/26 09:17:36;;;;;;;11.20;3.60;;;;;;;16.76;41.53;96518.47;4941179;28;20801;-71
2021/04/26 09:20:23;;;;;;;14.13;4.73;;;;;;;16.95;42.05;96518.53;4942076;28;20489;-74
2021/04/26 09:22:52;;;;;;;11.50;4.77;;;;;;;17.23;41.97;96517.75;4937854;28;20452;-72
2021/04/26 09:25:28;;;;;;;9.77;4.30;;;;;;;17.45;42.34;96515.69;4938284;28;20556;-73
2021/04/26 09:27:59;;;;;;;16.53;3.70;;;;;;;17.46;42.03;96504.19;4941172;28;20445;-72
2021/04/26 09:30:47;;;;;;;59.83;6.50;;;;;;;17.61;41.91;96502.84;4942288;28;20473;-73
2021/04/26 09:33:22;;;;;;;28.03;4.50;;;;;;;17.55;41.94;96484.97;4939019;28;20902;-73
2021/04/26 09:36:18;;;;;;;6.73;4.10;;;;;;;17.42;42.57;96486.19;4948587;28;20793;-71
2021/04/26 09:38:46;;;;;;;9.33;4.17;;;;;;;17.62;41.59;96494.78;4890470;28;20701;-72
2021/04/26 09:41:17;;;;;;;8.90;4.60;;;;;;;17.44;41.47;96490.34;4942452;28;20446;-72
2021/04/26 09:43:46;;;;;;;12.30;4.10;;;;;;;17.43;42.16;96493.16;4948702;28;20466;-73
2021/04/26 09:46:14;;;;;;;25.30;5.13;;;;;;;17.86;41.71;96492.53;4940280;28;20969;-72
2021/04/26 09:48:42;;;;;;;6.83;4.03;;;;;;;18.23;41.38;96489.94;4942903;28;20505;-73
2021/04/26 09:51:17;;;;;;;18.20;4.67;;;;;;;18.03;40.91;96478.63;4938263;28;20504;-72
2021/04/26 09:53:58;;;;;;;10.90;4.07;;;;;;;18.35;40.57;96484.38;4947144;28;20465;-72
2021/04/26 09:56:30;;;;;;;13.00;4.40;;;;;;;18.73;40.08;96484.19;4921902;28;20500;-74
2021/04/26 09:58:58;;;;;;;15.83;5.00;;;;;;;18.82;39.69;96482.47;4937228;28;20561;-74
2021/04/26 10:01:27;;;;;;;22.10;5.07;;;;;;;18.95;39.91;96483.75;4944405;28;20829;-75
2021/04/26 10:03:56;;;;;;;13.50;3.83;;;;;;;19.03;37.65;96480.41;4938134;28;20489;-74
2021/04/26 10:06:26;;;;;;;11.23;4.30;;;;;;;19.33;39.07;96478.28;4936730;28;20478;-76
2021/04/26 10:08:55;;;;;;;47.97;23.73;;;;;;;19.36;38.72;96483.25;4937748;28;20462;-74
2021/04/26 10:11:25;;;;;;;11.10;4.17;;;;;;;19.51;38.99;96486.19;4942745;28;20509;-75
2021/04/26 10:14:01;;;;;;;12.27;4.80;;;;;;;19.66;38.63;96482.84;4948327;28;20668;-75
2021/04/26 10:16:55;;;;;;;17.80;4.67;;;;;;;19.74;38.35;96467.03;4946266;28;20898;-72
2021/04/26 10:19:29;;;;;;;15.23;4.70;;;;;;;20.12;38.02;96471.97;4940714;28;20812;-73
2021/04/26 10:21:59;;;;;;;10.90;3.97;;;;;;;20.40;37.48;96467.34;4949862;28;20434;-73
2021/04/26 10:24:29;;;;;;;12.90;4.87;;;;;;;20.70;37.73;96470.25;4940472;28;20490;-73
2021/04/26 10:27:00;;;;;;;16.83;5.63;;;;;;;20.70;36.44;96445.66;4940199;28;20430;-75
2021/04/26 10:29:29;;;;;;;10.30;4.03;;;;;;;20.83;36.76;96468.00;4943072;28;20516;-75
2021/04/26 10:32:11;;;;;;;7.33;4.30;;;;;;;21.04;36.93;96459.66;4947810;28;20852;-74
2021/04/26 10:35:14;;;;;;;9.67;4.10;;;;;;;21.04;36.45;96454.34;4938140;28;20576;-74
2021/04/26 10:37:42;;;;;;;11.07;3.93;;;;;;;21.13;35.65;96448.09;4944125;28;21063;-73
2021/04/26 10:40:14;;;;;;;12.23;4.80;;;;;;;21.22;35.95;96442.63;4950287;28;20893;-76
2021/04/26 10:42:45;;;;;;;15.00;4.07;;;;;;;21.47;35.58;96441.69;4952022;28;20523;-75
2021/04/26 10:45:21;;;;;;;8.03;3.97;;;;;;;21.43;35.86;96435.03;4946051;28;20478;-74
2021/04/26 10:48:11;;;;;;;7.63;3.97;;;;;;;21.30;35.66;96437.38;4943478;28;20477;-74
2021/04/26 10:50:51;;;;;;;10.40;4.70;;;;;;;21.45;34.92;96432.25;4944978;28;20454;-74
2021/04/26 10:53:19;;;;;;;8.30;4.37;;;;;;;21.61;34.33;96433.06;4946549;28;20493;-74
2021/04/26 10:56:06;;;;;;;15.13;3.90;;;;;;;20.55;35.39;96424.25;4943186;28;20481;-74
2021/04/26 10:58:39;;;;;;;9.70;4.83;;;;;;;19.38;36.14;96423.19;4945314;28;20800;-74
2021/04/26 11:01:09;;;;;;;10.10;3.80;;;;;;;19.25;36.48;96416.66;4938153;28;20805;-73
2021/04/26 11:03:38;;;;;;;9.63;3.87;;;;;;;19.64;38.06;96408.22;4950792;28;20956;-72
2021/04/26 11:06:16;;;;;;;26.57;10.00;;;;;;;20.23;35.37;96400.31;4947156;28;20436;-73
2021/04/26 11:08:50;;;;;;;11.57;5.10;;;;;;;20.29;34.13;96410.28;4946072;28;20465;-73
2021/04/26 11:11:19;;;;;;;24.60;5.30;;;;;;;19.11;36.56;96383.69;4953156;28;20430;-74
2021/04/26 11:13:54;;;;;;;15.03;4.80;;;;;;;19.74;36.41;96395.72;4954166;28;20462;-74
2021/04/26 11:16:54;;;;;;;11.87;4.30;;;;;;;19.52;33.02;96390.94;4949864;28;20535;-72
2021/04/26 11:19:21;;;;;;;16.43;3.73;;;;;;;20.37;33.66;96391.78;4947470;28;20516;-73
2021/04/26 11:21:57;;;;;;;7.87;4.67;;;;;;;19.62;33.88;96399.63;4924409;28;20461;-73
2021/04/26 11:25:04;;;;;;;8.90;3.63;;;;;;;18.75;35.75;96379.38;4947904;28;20490;-74
2021/04/26 11:27:33;;;;;;;9.63;3.80;;;;;;;19.47;36.24;96379.19;4937698;28;20934;-73
2021/04/26 11:30:27;;;;;;;12.87;3.97;;;;;;;20.55;33.99;96367.88;4941074;28;20937;-73
2021/04/26 11:33:13;;;;;;;9.10;4.20;;;;;;;20.89;32.84;96366.81;4948654;28;20901;-74
2021/04/26 11:36:12;;;;;;;18.70;4.70;;;;;;;19.55;34.15;96364.25;4939694;28;20811;-74
2021/04/26 11:38:42;;;;;;;8.93;4.10;;;;;;;19.68;34.03;96362.00;4943701;28;20940;-74
2021/04/26 11:41:09;;;;;;;10.53;4.33;;;;;;;19.44;35.17;96355.75;4958680;28;20438;-72
2021/04/26 11:43:48;;;;;;;11.50;4.20;;;;;;;20.46;33.89;96348.50;4944161;28;20474;-75
2021/04/26 11:46:28;;;;;;;16.27;3.70;;;;;;;20.74;35.32;96341.97;4942083;28;20513;-73
2021/04/26 11:49:18;;;;;;;8.73;3.80;;;;;;;21.48;34.31;96332.06;4939107;28;20529;-74